aviador You're here:

K4I3 Decoded Metar

in _UNIDENTIFIED
Report Time2018-01-16 13:15:00
UTC Time2018-01-16 13:24:59
Flight Rules mvfr MVFR
Wind280° at 05 kt
W.Rank280° ranks 10
Current wind is below 280° avg. (9.3)
Visibility9999 m
Phenomena:N/A
Clouds:Overcast 014 Hf
Expected CloudBase > 1,200 ft AGL from Temp-Dew spread
Ceiling1,400 ft
Temp-14°C (ISA -27)
Dew Point-17°C (78% RH)
AAT-19.3°C
QNH1030 hPa
Density Alt-2,717 ft
Elevation1,191 ft
Report Wrong Elevation
Raw Report
METAR K4I3 161315Z AUTO 28005KT 10SM OVC014 M14/M17 A3041 RMK AO2=

Extra information for K4I3:More info

Metar Taf Metar & Taf Last 4 Metars F.Rules Stats Wind Profile Meteogram Temp Stats Metar ALERT Operation Metar Decoded Social comments